createdAt,value
2023-03-29T00:01:48.031Z,95724.00
2023-03-29T00:05:48.138Z,95738.00
2023-03-29T00:09:48.009Z,95762.00
2023-03-29T00:13:48.729Z,95772.00
2023-03-29T00:17:48.235Z,95775.00
2023-03-29T00:21:48.129Z,95766.00
2023-03-29T00:25:48.072Z,95768.00
2023-03-29T00:29:48.103Z,95781.00
2023-03-29T00:33:48.122Z,95787.00
2023-03-29T00:37:48.571Z,95795.00
2023-03-29T00:41:48.121Z,95801.00
2023-03-29T00:45:48.138Z,95805.00
2023-03-29T00:49:48.571Z,95813.00
2023-03-29T00:53:48.638Z,95809.00
2023-03-29T00:57:48.629Z,95803.00
2023-03-29T01:01:48.601Z,95822.00
2023-03-29T01:05:48.437Z,95828.00
2023-03-29T01:09:49.121Z,95828.00
2023-03-29T01:13:49.092Z,95817.00
2023-03-29T01:17:49.075Z,95819.00
2023-03-29T01:21:49.352Z,95807.00
2023-03-29T01:25:49.383Z,95807.00
2023-03-29T01:29:50.099Z,95809.00
2023-03-29T01:33:49.594Z,95805.00
2023-03-29T01:37:50.233Z,95813.00
2023-03-29T01:41:50.037Z,95809.00
2023-03-29T01:45:50.623Z,95797.00
2023-03-29T01:49:50.302Z,95795.00
2023-03-29T01:53:50.588Z,95793.00
2023-03-29T01:57:50.698Z,95793.00
2023-03-29T02:01:51.109Z,95791.00
2023-03-29T02:05:51.252Z,95793.00
2023-03-29T02:09:50.925Z,95781.00
2023-03-29T02:13:51.116Z,95779.00
2023-03-29T02:17:50.850Z,95775.00
2023-03-29T02:21:50.743Z,95770.00
2023-03-29T02:25:51.074Z,95760.00
2023-03-29T02:29:50.705Z,95762.00
2023-03-29T02:33:50.577Z,95762.00
2023-03-29T02:37:50.651Z,95773.00
2023-03-29T02:41:51.227Z,95770.00
2023-03-29T02:45:51.112Z,95764.00
2023-03-29T02:49:51.634Z,95760.00
2023-03-29T02:53:52.152Z,95756.00
2023-03-29T02:57:51.501Z,95742.00
2023-03-29T03:01:51.634Z,95738.00
2023-03-29T03:05:51.602Z,95748.00
2023-03-29T03:09:51.627Z,95736.00
2023-03-29T03:14:02.117Z,95738.00
2023-03-29T03:17:51.702Z,95740.00
2023-03-29T03:21:51.667Z,95746.00
2023-03-29T03:25:51.523Z,95748.00
2023-03-29T03:29:51.661Z,95756.00
2023-03-29T03:33:51.670Z,95768.00
2023-03-29T03:37:51.471Z,95772.00
2023-03-29T03:41:51.424Z,95783.00
2023-03-29T03:45:51.720Z,95787.00
2023-03-29T03:49:51.369Z,95779.00
2023-03-29T03:53:51.679Z,95768.00
2023-03-29T03:57:51.402Z,95762.00
2023-03-29T04:01:51.678Z,95762.00
2023-03-29T04:05:51.517Z,95758.00
2023-03-29T04:09:51.652Z,95756.00
2023-03-29T04:13:51.741Z,95746.00
2023-03-29T04:17:51.935Z,95736.00
2023-03-29T04:21:52.020Z,95724.00
2023-03-29T04:25:52.647Z,95720.00
2023-03-29T04:29:52.608Z,95726.00
2023-03-29T04:33:52.618Z,95724.00
2023-03-29T04:37:53.141Z,95705.00
2023-03-29T04:41:53.207Z,95703.00
2023-03-29T04:45:53.780Z,95691.00
2023-03-29T04:49:53.672Z,95691.00
2023-03-29T04:53:53.647Z,95691.00
2023-03-29T04:57:54.210Z,95687.00
2023-03-29T05:01:54.362Z,95685.00
2023-03-29T05:05:54.144Z,95689.00
2023-03-29T05:09:54.666Z,95679.00
2023-03-29T05:14:04.604Z,95679.00
2023-03-29T05:17:54.578Z,95660.00
2023-03-29T05:21:54.719Z,95660.00
2023-03-29T05:25:54.371Z,95660.00
2023-03-29T05:29:54.678Z,95658.00
2023-03-29T05:33:54.299Z,95664.00
2023-03-29T05:37:54.639Z,95654.00
2023-03-29T05:41:54.817Z,95660.00
2023-03-29T05:45:54.697Z,95656.00
2023-03-29T05:49:54.732Z,95672.00
2023-03-29T05:53:55.158Z,95662.00
2023-03-29T05:57:55.173Z,95681.00
2023-03-29T06:01:54.992Z,95676.00
2023-03-29T06:05:55.199Z,95676.00
2023-03-29T06:09:55.333Z,95679.00
2023-03-29T06:13:55.669Z,95689.00
2023-03-29T06:17:55.735Z,95695.00
2023-03-29T06:21:56.198Z,95685.00
2023-03-29T06:25:56.173Z,95689.00
2023-03-29T06:29:56.039Z,95693.00
2023-03-29T06:33:56.167Z,95691.00
2023-03-29T06:37:56.708Z,95695.00
2023-03-29T06:41:56.658Z,95699.00
2023-03-29T06:45:56.676Z,95711.00
2023-03-29T06:49:56.748Z,95709.00
2023-03-29T06:53:57.280Z,95718.00
2023-03-29T06:57:57.572Z,95720.00
2023-03-29T07:01:57.392Z,95720.00
2023-03-29T07:05:56.932Z,95711.00
2023-03-29T07:09:57.207Z,95711.00
2023-03-29T07:13:56.940Z,95720.00
2023-03-29T07:17:57.274Z,95717.00
2023-03-29T07:21:57.216Z,95722.00
2023-03-29T07:25:57.354Z,95717.00
2023-03-29T07:29:57.345Z,95717.00
2023-03-29T07:33:57.208Z,95717.00
2023-03-29T07:37:57.371Z,95722.00
2023-03-29T07:41:57.181Z,95718.00
2023-03-29T07:45:57.201Z,95713.00
2023-03-29T07:49:57.261Z,95717.00
2023-03-29T07:53:57.218Z,95707.00
2023-03-29T07:57:57.275Z,95717.00
2023-03-29T08:01:56.935Z,95720.00
2023-03-29T08:05:57.210Z,95713.00
2023-03-29T08:09:57.200Z,95715.00
2023-03-29T08:13:57.195Z,95715.00
2023-03-29T08:17:57.806Z,95718.00
2023-03-29T08:21:57.360Z,95722.00
2023-03-29T08:25:57.757Z,95720.00
2023-03-29T08:29:58.304Z,95718.00
2023-03-29T08:33:58.203Z,95722.00
2023-03-29T08:37:58.222Z,95728.00
2023-03-29T08:41:58.752Z,95736.00
2023-03-29T08:45:58.274Z,95746.00
2023-03-29T08:49:58.199Z,95746.00
2023-03-29T08:53:58.749Z,95746.00
2023-03-29T08:57:58.834Z,95746.00
2023-03-29T09:01:58.557Z,95744.00
2023-03-29T09:05:58.837Z,95746.00
2023-03-29T09:09:59.227Z,95748.00
2023-03-29T09:13:59.356Z,95746.00
2023-03-29T09:17:59.127Z,95742.00
2023-03-29T09:21:59.241Z,95734.00
2023-03-29T09:25:59.305Z,95738.00
2023-03-29T09:29:59.760Z,95742.00
2023-03-29T09:33:59.729Z,95736.00
2023-03-29T09:37:59.351Z,95740.00
2023-03-29T09:41:59.758Z,95732.00
2023-03-29T09:45:59.663Z,95728.00
2023-03-29T09:50:00.232Z,95726.00
2023-03-29T09:53:59.916Z,95718.00
2023-03-29T09:58:00.153Z,95722.00
2023-03-29T10:02:00.556Z,95717.00
2023-03-29T10:06:00.495Z,95713.00
2023-03-29T10:10:00.617Z,95701.00
2023-03-29T10:14:01.688Z,95699.00
2023-03-29T10:18:00.927Z,95701.00
2023-03-29T10:22:01.117Z,95693.00
2023-03-29T10:26:01.108Z,95697.00
2023-03-29T10:30:01.128Z,95693.00
2023-03-29T10:34:01.208Z,95695.00
2023-03-29T10:38:01.239Z,95693.00
2023-03-29T10:42:01.752Z,95693.00
2023-03-29T10:46:01.892Z,95689.00
2023-03-29T10:50:01.781Z,95691.00
2023-03-29T10:54:01.275Z,95691.00
2023-03-29T10:58:01.302Z,95689.00
2023-03-29T11:02:01.260Z,95687.00
2023-03-29T11:06:01.288Z,95685.00
2023-03-29T11:10:01.281Z,95687.00
2023-03-29T11:14:01.107Z,95679.00
2023-03-29T11:18:01.179Z,95674.00
2023-03-29T11:22:01.242Z,95662.00
2023-03-29T11:26:01.261Z,95654.00
2023-03-29T11:30:01.009Z,95654.00
2023-03-29T11:34:00.912Z,95652.00
2023-03-29T11:38:09.756Z,95650.00
2023-03-29T11:42:00.868Z,95648.00
2023-03-29T11:46:00.805Z,95648.00
2023-03-29T11:50:00.760Z,95650.00
2023-03-29T11:54:00.694Z,95636.00
2023-03-29T11:58:00.750Z,95628.00
2023-03-29T12:02:00.784Z,95615.00
2023-03-29T12:06:00.784Z,95617.00
2023-03-29T12:10:00.602Z,95603.00
2023-03-29T12:14:00.828Z,95595.00
2023-03-29T12:18:00.787Z,95595.00
2023-03-29T12:22:00.480Z,95585.00
2023-03-29T12:26:00.408Z,95587.00
2023-03-29T12:30:00.797Z,95579.00
2023-03-29T12:34:00.510Z,95573.00
2023-03-29T12:38:00.384Z,95568.00
2023-03-29T12:42:00.285Z,95564.00
2023-03-29T12:46:00.726Z,95571.00
2023-03-29T12:50:00.527Z,95570.00
2023-03-29T12:54:00.678Z,95562.00
2023-03-29T12:58:00.682Z,95556.00
2023-03-29T13:02:12.349Z,95554.00
2023-03-29T13:06:00.869Z,95534.00
2023-03-29T13:10:00.760Z,95540.00
2023-03-29T13:14:00.680Z,95530.00
2023-03-29T13:18:00.926Z,95542.00
2023-03-29T13:22:00.573Z,95542.00
2023-03-29T13:26:00.754Z,95544.00
2023-03-29T13:30:00.505Z,95542.00
2023-03-29T13:34:00.509Z,95552.00
2023-03-29T13:38:00.474Z,95564.00
2023-03-29T13:42:00.388Z,95558.00
2023-03-29T13:46:01.507Z,95568.00
2023-03-29T13:50:00.328Z,95564.00
2023-03-29T13:54:00.326Z,95548.00
2023-03-29T13:58:00.303Z,95540.00
2023-03-29T14:02:00.392Z,95540.00
2023-03-29T14:06:00.487Z,95534.00
2023-03-29T14:10:00.811Z,95538.00
2023-03-29T14:14:00.523Z,95548.00
2023-03-29T14:18:01.008Z,95540.00
2023-03-29T14:22:00.580Z,95542.00
2023-03-29T14:26:00.949Z,95540.00
2023-03-29T14:30:00.816Z,95536.00
2023-03-29T14:34:00.602Z,95540.00
2023-03-29T14:38:00.823Z,95544.00
2023-03-29T14:42:00.691Z,95550.00
2023-03-29T14:46:00.863Z,95550.00
2023-03-29T14:50:00.846Z,95542.00
2023-03-29T14:54:00.852Z,95546.00
2023-03-29T14:58:00.814Z,95550.00
2023-03-29T15:02:00.763Z,95554.00
2023-03-29T15:06:00.899Z,95558.00
2023-03-29T15:10:00.940Z,95556.00
2023-03-29T15:14:01.059Z,95544.00
2023-03-29T15:18:01.352Z,95544.00
2023-03-29T15:22:02.315Z,95532.00
2023-03-29T15:26:01.625Z,95523.00
2023-03-29T15:30:01.844Z,95505.00
2023-03-29T15:34:01.642Z,95509.00
2023-03-29T15:38:01.767Z,95505.00
2023-03-29T15:42:02.546Z,95505.00
2023-03-29T15:46:02.156Z,95507.00
2023-03-29T15:50:02.357Z,95507.00
2023-03-29T15:54:02.212Z,95495.00
2023-03-29T15:58:02.429Z,95485.00
2023-03-29T16:02:02.864Z,95487.00
2023-03-29T16:06:02.770Z,95485.00
2023-03-29T16:10:02.845Z,95485.00
2023-03-29T16:14:02.754Z,95487.00
2023-03-29T16:18:02.902Z,95491.00
2023-03-29T16:22:02.896Z,95481.00
2023-03-29T16:26:03.511Z,95489.00
2023-03-29T16:30:02.964Z,95493.00
2023-03-29T16:34:03.389Z,95485.00
2023-03-29T16:38:03.188Z,95483.00
2023-03-29T16:42:03.250Z,95485.00
2023-03-29T16:46:03.660Z,95476.00
2023-03-29T16:50:03.480Z,95477.00
2023-03-29T16:54:03.864Z,95481.00
2023-03-29T16:58:03.633Z,95477.00
2023-03-29T17:02:03.913Z,95468.00
2023-03-29T17:06:03.993Z,95472.00
2023-03-29T17:10:04.336Z,95476.00
2023-03-29T17:14:04.136Z,95485.00
2023-03-29T17:18:04.241Z,95481.00
2023-03-29T17:22:04.390Z,95472.00
2023-03-29T17:26:05.043Z,95476.00
2023-03-29T17:30:05.438Z,95487.00
2023-03-29T17:34:04.698Z,95483.00
2023-03-29T17:38:04.783Z,95485.00
2023-03-29T17:42:05.392Z,95497.00
2023-03-29T17:46:05.317Z,95493.00
2023-03-29T17:50:05.352Z,95493.00
2023-03-29T17:54:05.279Z,95499.00
2023-03-29T17:58:05.417Z,95501.00
2023-03-29T18:02:05.610Z,95503.00
2023-03-29T18:06:06.219Z,95517.00
2023-03-29T18:10:05.920Z,95515.00
2023-03-29T18:14:06.105Z,95511.00
2023-03-29T18:18:06.311Z,95519.00
2023-03-29T18:22:06.918Z,95509.00
2023-03-29T18:26:06.657Z,95511.00
2023-03-29T18:30:06.870Z,95511.00
2023-03-29T18:34:06.458Z,95509.00
2023-03-29T18:38:06.420Z,95523.00
2023-03-29T18:42:06.435Z,95517.00
2023-03-29T18:46:06.648Z,95526.00
2023-03-29T18:50:06.497Z,95526.00
2023-03-29T18:54:06.196Z,95536.00
2023-03-29T18:58:06.539Z,95552.00
2023-03-29T19:02:06.215Z,95554.00
2023-03-29T19:06:06.440Z,95552.00
2023-03-29T19:10:06.197Z,95554.00
2023-03-29T19:14:06.442Z,95562.00
2023-03-29T19:18:06.478Z,95550.00
2023-03-29T19:22:06.275Z,95570.00
2023-03-29T19:26:06.563Z,95571.00
2023-03-29T19:30:06.252Z,95568.00
2023-03-29T19:34:06.444Z,95571.00
2023-03-29T19:38:06.408Z,95562.00
2023-03-29T19:42:06.390Z,95570.00
2023-03-29T19:46:06.961Z,95581.00
2023-03-29T19:50:06.810Z,95585.00
2023-03-29T19:54:06.920Z,95599.00
2023-03-29T19:58:06.906Z,95595.00
2023-03-29T20:02:06.687Z,95593.00
2023-03-29T20:06:06.954Z,95603.00
2023-03-29T20:10:06.683Z,95603.00
2023-03-29T20:14:06.740Z,95605.00
2023-03-29T20:18:06.949Z,95597.00
2023-03-29T20:22:06.697Z,95601.00
2023-03-29T20:26:06.921Z,95599.00
2023-03-29T20:30:06.736Z,95591.00
2023-03-29T20:34:06.662Z,95593.00
2023-03-29T20:38:06.912Z,95589.00
2023-03-29T20:42:06.730Z,95589.00
2023-03-29T20:46:06.961Z,95579.00
2023-03-29T20:50:06.763Z,95577.00
2023-03-29T20:54:06.918Z,95570.00
2023-03-29T20:58:06.896Z,95568.00
2023-03-29T21:02:07.088Z,95566.00
2023-03-29T21:06:06.833Z,95550.00
2023-03-29T21:10:06.880Z,95544.00
2023-03-29T21:14:06.920Z,95538.00
2023-03-29T21:18:06.966Z,95538.00
2023-03-29T21:22:07.452Z,95536.00
2023-03-29T21:26:06.954Z,95542.00
2023-03-29T21:30:07.434Z,95540.00
2023-03-29T21:34:07.434Z,95530.00
2023-03-29T21:38:07.452Z,95538.00
2023-03-29T21:42:07.985Z,95532.00
2023-03-29T21:46:07.069Z,95532.00
2023-03-29T21:50:07.409Z,95528.00
2023-03-29T21:54:07.095Z,95530.00
2023-03-29T21:58:07.444Z,95528.00
2023-03-29T22:02:07.158Z,95530.00
2023-03-29T22:06:07.140Z,95532.00
2023-03-29T22:10:07.517Z,95542.00
2023-03-29T22:14:07.480Z,95542.00
2023-03-29T22:18:07.274Z,95532.00
2023-03-29T22:22:07.486Z,95538.00
2023-03-29T22:26:07.355Z,95532.00
2023-03-29T22:30:07.457Z,95540.00
2023-03-29T22:34:07.470Z,95540.00
2023-03-29T22:38:07.425Z,95540.00
2023-03-29T22:42:07.490Z,95538.00
2023-03-29T22:46:07.986Z,95517.00
2023-03-29T22:50:07.976Z,95526.00
2023-03-29T22:54:07.917Z,95521.00
2023-03-29T22:58:07.820Z,95521.00
2023-03-29T23:02:07.816Z,95517.00
2023-03-29T23:06:07.850Z,95511.00
2023-03-29T23:10:07.951Z,95517.00
2023-03-29T23:14:08.541Z,95517.00
2023-03-29T23:18:08.624Z,95521.00
2023-03-29T23:22:08.122Z,95513.00
2023-03-29T23:26:08.581Z,95511.00
2023-03-29T23:30:08.456Z,95505.00
2023-03-29T23:34:08.554Z,95499.00
2023-03-29T23:38:08.304Z,95499.00
2023-03-29T23:42:08.231Z,95497.00
2023-03-29T23:46:08.535Z,95485.00
2023-03-29T23:50:08.479Z,95477.00
2023-03-29T23:54:08.486Z,95468.00
2023-03-29T23:58:08.947Z,95470.00
